KRF336 RKSM-PHNL
Flight info
| Callsign | KRF336 |
|---|---|
| Flight time | 2h 38m |
| Altitude | 37000 |
| Route | PINEV5 PINEV DCT NOBUT DCT LANAT Y51 INUBO Y830 LAPIL OTR13 SEALS DCT 35N150E 34N160E 32N170E/N0469F390 30N180E 26N170W DCT CANON BOOKE8 |
| Aircraft | A332/H-SDE3GHIJ2J3J5M1RVWXY/LB2D1 |
Departure
| Time | 2026-05-05 12:44 |
|---|---|
| Airport | Seoul Air Base (K-16) (RKSM) |
Arrival
| Time | 2026-05-05 15:23 |
|---|---|
| Airport | Daniel K. Inouye International Airport (PHNL) |
| Time | Latitude | Longitude | Altitude | Speed | Heading |
|---|---|---|---|---|---|
| 2026-05-05 12:22 | 37.45003 | 127.10771 | 108 ft | 0 kts | 278° |
| 2026-05-05 12:33 | 37.45003 | 127.10772 | 107 ft | 1 kts | 278° |
| 2026-05-05 12:33 | 37.44998 | 127.10816 | 107 ft | 5 kts | 278° |
| 2026-05-05 12:33 | 37.44993 | 127.10863 | 104 ft | 5 kts | 284° |
| 2026-05-05 12:34 | 37.44967 | 127.10891 | 103 ft | 5 kts | 13° |
| 2026-05-05 12:34 | 37.44945 | 127.10886 | 103 ft | 0 kts | 6° |
| 2026-05-05 12:39 | 37.44952 | 127.10887 | 107 ft | 2 kts | 6° |
| 2026-05-05 12:39 | 37.44966 | 127.10889 | 107 ft | 3 kts | 6° |
| 2026-05-05 12:39 | 37.44977 | 127.10900 | 107 ft | 1 kts | 39° |
| 2026-05-05 12:39 | 37.44981 | 127.10911 | 107 ft | 1 kts | 55° |
| 2026-05-05 12:40 | 37.44979 | 127.10932 | 106 ft | 5 kts | 94° |
| 2026-05-05 12:40 | 37.44973 | 127.11027 | 107 ft | 16 kts | 94° |
| 2026-05-05 12:40 | 37.45069 | 127.11113 | 107 ft | 23 kts | 16° |
| 2026-05-05 12:40 | 37.45255 | 127.11140 | 107 ft | 31 kts | 9° |
| 2026-05-05 12:41 | 37.45495 | 127.11190 | 107 ft | 39 kts | 9° |
| 2026-05-05 12:41 | 37.45775 | 127.11237 | 106 ft | 39 kts | 6° |
| 2026-05-05 12:41 | 37.45874 | 127.11376 | 106 ft | 11 kts | 105° |
| 2026-05-05 12:41 | 37.45873 | 127.11384 | 106 ft | 1 kts | 100° |
| 2026-05-05 12:42 | 37.45873 | 127.11385 | 106 ft | 0 kts | 98° |
| 2026-05-05 12:42 | 37.45873 | 127.11386 | 106 ft | 0 kts | 98° |
| 2026-05-05 12:42 | 37.45873 | 127.11389 | 106 ft | 1 kts | 98° |
| 2026-05-05 12:42 | 37.45871 | 127.11406 | 106 ft | 3 kts | 98° |
| 2026-05-05 12:43 | 37.45850 | 127.11494 | 106 ft | 16 kts | 123° |
| 2026-05-05 12:43 | 37.45747 | 127.11506 | 106 ft | 22 kts | 187° |
| 2026-05-05 12:43 | 37.45337 | 127.11437 | 107 ft | 96 kts | 188° |
| 2026-05-05 12:43 | 37.44456 | 127.11276 | 106 ft | 157 kts | 188° |
| 2026-05-05 12:44 | 37.43254 | 127.11051 | 324 ft | 182 kts | 189° |
| 2026-05-05 12:44 | 37.41967 | 127.10738 | 731 ft | 201 kts | 192° |
| 2026-05-05 12:44 | 37.40489 | 127.10614 | 1035 ft | 228 kts | 166° |
| 2026-05-05 12:44 | 37.39138 | 127.11685 | 1743 ft | 236 kts | 129° |
| 2026-05-05 12:45 | 37.38483 | 127.13558 | 2755 ft | 237 kts | 102° |
| 2026-05-05 12:45 | 37.38533 | 127.15636 | 3515 ft | 243 kts | 76° |
| 2026-05-05 12:45 | 37.39378 | 127.17509 | 4004 ft | 257 kts | 39° |
| 2026-05-05 12:45 | 37.40950 | 127.18543 | 4625 ft | 254 kts | 13° |
| 2026-05-05 12:46 | 37.42690 | 127.19065 | 5218 ft | 260 kts | 10° |
| 2026-05-05 12:46 | 37.44473 | 127.19637 | 5714 ft | 273 kts | 19° |
| 2026-05-05 12:46 | 37.46085 | 127.21010 | 6093 ft | 288 kts | 49° |
| 2026-05-05 12:46 | 37.47046 | 127.23184 | 6752 ft | 290 kts | 75° |
| 2026-05-05 12:47 | 37.47348 | 127.25698 | 7368 ft | 293 kts | 82° |
| 2026-05-05 12:47 | 37.47648 | 127.28254 | 8008 ft | 296 kts | 83° |
| 2026-05-05 12:47 | 37.47919 | 127.30833 | 8691 ft | 298 kts | 83° |
| 2026-05-05 12:47 | 37.48190 | 127.33430 | 9367 ft | 300 kts | 85° |
| 2026-05-05 12:48 | 37.48214 | 127.36067 | 10033 ft | 303 kts | 94° |
| 2026-05-05 12:48 | 37.48003 | 127.38754 | 10384 ft | 317 kts | 98° |
| 2026-05-05 12:48 | 37.47617 | 127.41572 | 10576 ft | 336 kts | 103° |
| 2026-05-05 12:48 | 37.47042 | 127.44500 | 10925 ft | 349 kts | 107° |
| 2026-05-05 12:49 | 37.46295 | 127.47412 | 11625 ft | 349 kts | 109° |
| 2026-05-05 12:49 | 37.45538 | 127.50326 | 12288 ft | 352 kts | 108° |
| 2026-05-05 12:49 | 37.44790 | 127.53274 | 13006 ft | 354 kts | 108° |
| 2026-05-05 12:49 | 37.44043 | 127.56227 | 13725 ft | 355 kts | 108° |
| 2026-05-05 12:50 | 37.43291 | 127.59186 | 14388 ft | 357 kts | 108° |
| 2026-05-05 12:50 | 37.42539 | 127.62132 | 14967 ft | 360 kts | 108° |
| 2026-05-05 12:50 | 37.41768 | 127.65144 | 15554 ft | 363 kts | 108° |
| 2026-05-05 12:50 | 37.40988 | 127.68183 | 16146 ft | 366 kts | 108° |
| 2026-05-05 12:51 | 37.40200 | 127.71248 | 16751 ft | 369 kts | 108° |
| 2026-05-05 12:51 | 37.39406 | 127.74333 | 17355 ft | 372 kts | 108° |
| 2026-05-05 12:51 | 37.38604 | 127.77447 | 17916 ft | 376 kts | 108° |
| 2026-05-05 12:51 | 37.37792 | 127.80594 | 18506 ft | 379 kts | 108° |
| 2026-05-05 12:52 | 37.36971 | 127.83766 | 19029 ft | 383 kts | 108° |
| 2026-05-05 12:52 | 37.36155 | 127.86918 | 19572 ft | 385 kts | 108° |
| 2026-05-05 12:52 | 37.35322 | 127.90130 | 20120 ft | 388 kts | 108° |
| 2026-05-05 12:52 | 37.34478 | 127.93382 | 20642 ft | 392 kts | 108° |
| 2026-05-05 12:53 | 37.33628 | 127.96650 | 21209 ft | 394 kts | 108° |
| 2026-05-05 12:53 | 37.32775 | 127.99928 | 21799 ft | 396 kts | 108° |
| 2026-05-05 12:53 | 37.31911 | 128.03243 | 22305 ft | 401 kts | 108° |
| 2026-05-05 12:53 | 37.31038 | 128.06586 | 22869 ft | 404 kts | 108° |
| 2026-05-05 12:54 | 37.29568 | 128.12206 | 23746 ft | 411 kts | 108° |
| 2026-05-05 12:54 | 37.28671 | 128.15630 | 24214 ft | 414 kts | 108° |
| 2026-05-05 12:54 | 37.27767 | 128.19074 | 24671 ft | 418 kts | 108° |
| 2026-05-05 12:55 | 37.26852 | 128.22557 | 25123 ft | 422 kts | 108° |
| 2026-05-05 12:55 | 37.25928 | 128.26074 | 25570 ft | 426 kts | 108° |
| 2026-05-05 12:55 | 37.24987 | 128.29644 | 25845 ft | 435 kts | 108° |
| 2026-05-05 12:55 | 37.24027 | 128.33282 | 26194 ft | 441 kts | 108° |
| 2026-05-05 12:56 | 37.23056 | 128.36957 | 26687 ft | 444 kts | 108° |
| 2026-05-05 12:56 | 37.22080 | 128.40647 | 27113 ft | 449 kts | 108° |
| 2026-05-05 12:56 | 37.21086 | 128.44403 | 27341 ft | 459 kts | 108° |
| 2026-05-05 12:56 | 37.20078 | 128.48201 | 27587 ft | 467 kts | 108° |
| 2026-05-05 12:57 | 37.19041 | 128.52101 | 27857 ft | 475 kts | 109° |
| 2026-05-05 12:57 | 37.17982 | 128.56075 | 28125 ft | 482 kts | 109° |
| 2026-05-05 12:57 | 37.16918 | 128.60067 | 28395 ft | 483 kts | 109° |
| 2026-05-05 12:57 | 37.15854 | 128.64055 | 28661 ft | 482 kts | 109° |
| 2026-05-05 12:58 | 37.14788 | 128.68041 | 28926 ft | 483 kts | 109° |
| 2026-05-05 12:58 | 37.13716 | 128.72048 | 29204 ft | 485 kts | 109° |
| 2026-05-05 12:58 | 37.12644 | 128.76046 | 29475 ft | 483 kts | 109° |
| 2026-05-05 12:58 | 37.11571 | 128.80039 | 29758 ft | 483 kts | 109° |
| 2026-05-05 12:59 | 37.10498 | 128.84026 | 30037 ft | 483 kts | 109° |
| 2026-05-05 12:59 | 37.09422 | 128.88019 | 30293 ft | 483 kts | 109° |
| 2026-05-05 12:59 | 37.08347 | 128.92007 | 30528 ft | 485 kts | 109° |
| 2026-05-05 13:00 | 37.06174 | 129.00047 | 31003 ft | 485 kts | 110° |
| 2026-05-05 13:00 | 37.05089 | 129.04049 | 31254 ft | 486 kts | 110° |
| 2026-05-05 13:01 | 37.01840 | 129.16002 | 31994 ft | 487 kts | 110° |
| 2026-05-05 13:01 | 37.00747 | 129.20012 | 32252 ft | 486 kts | 110° |
| 2026-05-05 13:01 | 36.99654 | 129.24014 | 32487 ft | 486 kts | 110° |
| 2026-05-05 13:01 | 36.98558 | 129.28017 | 32749 ft | 486 kts | 111° |
| 2026-05-05 13:02 | 36.97462 | 129.32016 | 33015 ft | 486 kts | 111° |
| 2026-05-05 13:02 | 36.96365 | 129.36013 | 33271 ft | 486 kts | 111° |
| 2026-05-05 13:02 | 36.95267 | 129.40009 | 33541 ft | 486 kts | 111° |
| 2026-05-05 13:02 | 36.94167 | 129.44008 | 33810 ft | 485 kts | 111° |
| 2026-05-05 13:03 | 36.93068 | 129.47994 | 34076 ft | 485 kts | 111° |
| 2026-05-05 13:03 | 36.91978 | 129.51942 | 34301 ft | 486 kts | 111° |
| 2026-05-05 13:03 | 36.90871 | 129.55944 | 34536 ft | 487 kts | 111° |
| 2026-05-05 13:03 | 36.89763 | 129.59947 | 34766 ft | 488 kts | 112° |
| 2026-05-05 13:04 | 36.88649 | 129.63964 | 35000 ft | 491 kts | 112° |
| 2026-05-05 13:04 | 36.87527 | 129.68006 | 35241 ft | 491 kts | 112° |
| 2026-05-05 13:04 | 36.86404 | 129.72042 | 35479 ft | 492 kts | 112° |
| 2026-05-05 13:04 | 36.85279 | 129.76081 | 35726 ft | 492 kts | 112° |
| 2026-05-05 13:05 | 36.84161 | 129.80085 | 35965 ft | 493 kts | 112° |
| 2026-05-05 13:05 | 36.83017 | 129.84181 | 36205 ft | 495 kts | 112° |
| 2026-05-05 13:05 | 36.81891 | 129.88206 | 36456 ft | 497 kts | 113° |
| 2026-05-05 13:05 | 36.80747 | 129.92288 | 36709 ft | 499 kts | 113° |
| 2026-05-05 13:06 | 36.79598 | 129.96379 | 36970 ft | 501 kts | 113° |
| 2026-05-05 13:06 | 36.78436 | 130.00510 | 37050 ft | 506 kts | 113° |
| 2026-05-05 13:06 | 36.76079 | 130.08872 | 37076 ft | 516 kts | 113° |
| 2026-05-05 13:07 | 36.73668 | 130.17400 | 37084 ft | 524 kts | 113° |
| 2026-05-05 13:07 | 36.71241 | 130.25961 | 37076 ft | 528 kts | 113° |
| 2026-05-05 13:08 | 36.68782 | 130.34613 | 37091 ft | 529 kts | 114° |
| 2026-05-05 13:08 | 36.66317 | 130.43250 | 37102 ft | 529 kts | 114° |
| 2026-05-05 13:09 | 36.63841 | 130.51900 | 37104 ft | 530 kts | 114° |
| 2026-05-05 13:09 | 36.61357 | 130.60548 | 37103 ft | 530 kts | 114° |
| 2026-05-05 13:10 | 36.58864 | 130.69200 | 37107 ft | 530 kts | 114° |
| 2026-05-05 13:10 | 36.56381 | 130.77789 | 37110 ft | 530 kts | 114° |
| 2026-05-05 13:11 | 36.53875 | 130.86435 | 37114 ft | 530 kts | 114° |
| 2026-05-05 13:11 | 36.51366 | 130.95062 | 37122 ft | 530 kts | 114° |
| 2026-05-05 13:12 | 36.48852 | 131.03682 | 37124 ft | 530 kts | 114° |
| 2026-05-05 13:12 | 36.46331 | 131.12295 | 37124 ft | 530 kts | 114° |
| 2026-05-05 13:13 | 36.43816 | 131.20862 | 37128 ft | 532 kts | 114° |
| 2026-05-05 13:13 | 36.41277 | 131.29485 | 37129 ft | 532 kts | 115° |
| 2026-05-05 13:14 | 36.38743 | 131.38117 | 37132 ft | 534 kts | 112° |
| 2026-05-05 13:14 | 36.37220 | 131.47235 | 37138 ft | 544 kts | 98° |
| 2026-05-05 13:15 | 36.36446 | 131.71871 | 37145 ft | 548 kts | 95° |
| 2026-05-05 13:15 | 36.35183 | 132.09401 | 37150 ft | 550 kts | 96° |
| 2026-05-05 13:16 | 36.33790 | 132.47361 | 37153 ft | 552 kts | 96° |
| 2026-05-05 13:16 | 36.32264 | 132.85572 | 37167 ft | 556 kts | 97° |
| 2026-05-05 13:17 | 36.30614 | 133.23921 | 37173 ft | 556 kts | 97° |
| 2026-05-05 13:17 | 36.28835 | 133.62357 | 37178 ft | 558 kts | 97° |
| 2026-05-05 13:18 | 36.26920 | 134.01007 | 37142 ft | 563 kts | 98° |
| 2026-05-05 13:18 | 36.24795 | 134.39088 | 38285 ft | 510 kts | 99° |
| 2026-05-05 13:19 | 36.26050 | 134.57076 | 38424 ft | 545 kts | 76° |
| 2026-05-05 13:19 | 36.27893 | 134.75631 | 39262 ft | 543 kts | 93° |
| 2026-05-05 13:19 | 36.25765 | 134.94106 | 39667 ft | 542 kts | 104° |
| 2026-05-05 13:19 | 36.25016 | 135.13038 | 39207 ft | 573 kts | 93° |
| 2026-05-05 13:20 | 36.25327 | 135.53991 | 39193 ft | 575 kts | 94° |
| 2026-05-05 13:20 | 36.25485 | 135.93868 | 39200 ft | 579 kts | 94° |
| 2026-05-05 13:21 | 36.25509 | 136.33928 | 39167 ft | 582 kts | 95° |
| 2026-05-05 13:21 | 36.25396 | 136.74250 | 39231 ft | 584 kts | 95° |
| 2026-05-05 13:22 | 36.25158 | 137.13864 | 39272 ft | 585 kts | 95° |
| 2026-05-05 13:22 | 36.24782 | 137.54308 | 39273 ft | 586 kts | 95° |
| 2026-05-05 13:23 | 36.24257 | 137.94720 | 39265 ft | 590 kts | 95° |
| 2026-05-05 13:23 | 36.23326 | 138.35581 | 39293 ft | 590 kts | 104° |
| 2026-05-05 13:24 | 36.18716 | 138.75867 | 39281 ft | 591 kts | 104° |
| 2026-05-05 13:24 | 36.14007 | 139.15885 | 39289 ft | 592 kts | 104° |
| 2026-05-05 13:25 | 36.09093 | 139.56175 | 39288 ft | 594 kts | 104° |
| 2026-05-05 13:25 | 36.01401 | 139.95507 | 39289 ft | 588 kts | 111° |
| 2026-05-05 13:26 | 35.92395 | 140.34154 | 39307 ft | 574 kts | 125° |
| 2026-05-05 13:26 | 35.77490 | 140.68750 | 39312 ft | 570 kts | 127° |
| 2026-05-05 13:27 | 35.61969 | 141.02680 | 39311 ft | 567 kts | 129° |
| 2026-05-05 13:27 | 35.46226 | 141.35941 | 39319 ft | 566 kts | 129° |
| 2026-05-05 13:28 | 35.30343 | 141.69266 | 39314 ft | 571 kts | 124° |
| 2026-05-05 13:28 | 35.27479 | 141.88892 | 39313 ft | 598 kts | 93° |
| 2026-05-05 13:28 | 35.27259 | 142.09235 | 39327 ft | 599 kts | 94° |
| 2026-05-05 13:29 | 35.26725 | 142.49988 | 39342 ft | 596 kts | 94° |
| 2026-05-05 13:29 | 35.26042 | 142.90661 | 39314 ft | 597 kts | 94° |
| 2026-05-05 13:30 | 35.25233 | 143.31139 | 39349 ft | 598 kts | 94° |
| 2026-05-05 13:30 | 35.26264 | 143.71867 | 39344 ft | 598 kts | 91° |
| 2026-05-05 13:31 | 35.27235 | 144.12591 | 39345 ft | 598 kts | 91° |
| 2026-05-05 13:31 | 35.28065 | 144.53054 | 39348 ft | 599 kts | 91° |
| 2026-05-05 13:32 | 35.28767 | 144.93818 | 39350 ft | 598 kts | 92° |
| 2026-05-05 13:32 | 35.30168 | 145.34638 | 39356 ft | 601 kts | 90° |
| 2026-05-05 13:33 | 35.31476 | 145.75476 | 39355 ft | 600 kts | 91° |
| 2026-05-05 13:33 | 35.31096 | 146.16221 | 39356 ft | 595 kts | 99° |
| 2026-05-05 13:34 | 35.28419 | 146.56655 | 39352 ft | 596 kts | 99° |
| 2026-05-05 13:34 | 35.25589 | 146.97037 | 39360 ft | 595 kts | 99° |
| 2026-05-05 13:35 | 35.22642 | 147.37139 | 39356 ft | 592 kts | 99° |
| 2026-05-05 13:35 | 35.19546 | 147.77436 | 39353 ft | 594 kts | 100° |
| 2026-05-05 13:36 | 35.16325 | 148.17579 | 39352 ft | 593 kts | 99° |
| 2026-05-05 13:36 | 35.12993 | 148.57436 | 39349 ft | 593 kts | 99° |
| 2026-05-05 13:37 | 35.09508 | 148.97553 | 39322 ft | 592 kts | 99° |
| 2026-05-05 13:37 | 35.05905 | 149.37480 | 39339 ft | 591 kts | 99° |
| 2026-05-05 13:38 | 35.02172 | 149.77347 | 39338 ft | 591 kts | 98° |
| 2026-05-05 13:38 | 34.98922 | 150.17051 | 39330 ft | 591 kts | 95° |
| 2026-05-05 13:39 | 34.96545 | 150.56996 | 39331 ft | 589 kts | 96° |
| 2026-05-05 13:39 | 34.93985 | 150.96742 | 39325 ft | 584 kts | 96° |
| 2026-05-05 13:40 | 34.91311 | 151.36147 | 39322 ft | 583 kts | 97° |
| 2026-05-05 13:40 | 34.89000 | 151.68776 | 39316 ft | 578 kts | 97° |
| 2026-05-05 13:41 | 34.86123 | 152.07747 | 39311 ft | 576 kts | 97° |
| 2026-05-05 13:41 | 34.83145 | 152.46416 | 39307 ft | 571 kts | 98° |
| 2026-05-05 13:42 | 34.80066 | 152.84771 | 39285 ft | 568 kts | 98° |
| 2026-05-05 13:42 | 34.76887 | 153.22886 | 39292 ft | 563 kts | 99° |
| 2026-05-05 13:43 | 34.73598 | 153.60836 | 39291 ft | 562 kts | 99° |
| 2026-05-05 13:43 | 34.70247 | 153.98162 | 39279 ft | 558 kts | 101° |
| 2026-05-05 13:44 | 34.66758 | 154.35713 | 39278 ft | 559 kts | 101° |
| 2026-05-05 13:44 | 34.63151 | 154.73273 | 39277 ft | 558 kts | 101° |
| 2026-05-05 13:45 | 34.59436 | 155.10688 | 39276 ft | 556 kts | 102° |
| 2026-05-05 13:45 | 34.55647 | 155.47692 | 39271 ft | 553 kts | 101° |
| 2026-05-05 13:46 | 34.51751 | 155.84646 | 39269 ft | 552 kts | 102° |
| 2026-05-05 13:46 | 34.47757 | 156.21434 | 39263 ft | 548 kts | 102° |
| 2026-05-05 13:47 | 34.43684 | 156.57899 | 39259 ft | 546 kts | 102° |
| 2026-05-05 13:47 | 34.39528 | 156.94129 | 39256 ft | 539 kts | 102° |
| 2026-05-05 13:48 | 34.35295 | 157.30051 | 39256 ft | 538 kts | 102° |
| 2026-05-05 13:48 | 34.30971 | 157.65840 | 39247 ft | 537 kts | 102° |
| 2026-05-05 13:49 | 34.26577 | 158.01332 | 39249 ft | 536 kts | 102° |
| 2026-05-05 13:49 | 34.22073 | 158.36842 | 39241 ft | 531 kts | 102° |
| 2026-05-05 13:50 | 34.17494 | 158.72100 | 39261 ft | 531 kts | 102° |
| 2026-05-05 13:50 | 34.12832 | 159.07193 | 39246 ft | 528 kts | 102° |
| 2026-05-05 13:51 | 34.08086 | 159.42131 | 39244 ft | 527 kts | 102° |
| 2026-05-05 13:51 | 34.03265 | 159.76969 | 39242 ft | 525 kts | 102° |
| 2026-05-05 13:52 | 33.98164 | 160.11278 | 39242 ft | 522 kts | 103° |
| 2026-05-05 13:52 | 33.92798 | 160.45543 | 39246 ft | 519 kts | 103° |
| 2026-05-05 13:53 | 33.87333 | 160.79480 | 39252 ft | 514 kts | 103° |
| 2026-05-05 13:53 | 33.81786 | 161.13244 | 39257 ft | 513 kts | 103° |
| 2026-05-05 13:54 | 33.76167 | 161.46844 | 39265 ft | 512 kts | 103° |
| 2026-05-05 13:54 | 33.70459 | 161.80393 | 39265 ft | 512 kts | 104° |
| 2026-05-05 13:55 | 33.64653 | 162.13933 | 39273 ft | 512 kts | 104° |
| 2026-05-05 13:55 | 33.58778 | 162.47322 | 39278 ft | 512 kts | 104° |
| 2026-05-05 13:56 | 33.52846 | 162.80482 | 39276 ft | 511 kts | 104° |
| 2026-05-05 13:56 | 33.46811 | 163.13671 | 39291 ft | 509 kts | 104° |
| 2026-05-05 13:57 | 33.40705 | 163.46718 | 39296 ft | 508 kts | 104° |
| 2026-05-05 13:57 | 33.34531 | 163.79618 | 39297 ft | 504 kts | 105° |
| 2026-05-05 13:58 | 33.28307 | 164.12290 | 39303 ft | 503 kts | 105° |
| 2026-05-05 13:58 | 33.22008 | 164.44844 | 39304 ft | 501 kts | 105° |
| 2026-05-05 13:59 | 33.12478 | 164.93202 | 39307 ft | 500 kts | 106° |
| 2026-05-05 14:00 | 33.03729 | 165.36640 | 39306 ft | 500 kts | 106° |
| 2026-05-05 14:00 | 32.96039 | 165.74275 | 39318 ft | 500 kts | 107° |
| 2026-05-05 14:01 | 32.89352 | 166.06429 | 39316 ft | 498 kts | 106° |
| 2026-05-05 14:01 | 32.82643 | 166.38269 | 39322 ft | 498 kts | 106° |
| 2026-05-05 14:02 | 32.75816 | 166.70218 | 39321 ft | 498 kts | 106° |
| 2026-05-05 14:02 | 32.68926 | 167.02051 | 39325 ft | 495 kts | 107° |
| 2026-05-05 14:03 | 32.62031 | 167.33495 | 39326 ft | 495 kts | 107° |
| 2026-05-05 14:03 | 32.55016 | 167.65092 | 39324 ft | 494 kts | 107° |
| 2026-05-05 14:04 | 32.47940 | 167.96550 | 39327 ft | 493 kts | 107° |
| 2026-05-05 14:04 | 32.40786 | 168.27952 | 39331 ft | 493 kts | 107° |
| 2026-05-05 14:05 | 32.33570 | 168.59223 | 39330 ft | 491 kts | 107° |
| 2026-05-05 14:05 | 32.26331 | 168.90230 | 39331 ft | 492 kts | 107° |
| 2026-05-05 14:06 | 32.18968 | 169.21386 | 39333 ft | 492 kts | 107° |
| 2026-05-05 14:06 | 32.11540 | 169.52440 | 39330 ft | 490 kts | 107° |
| 2026-05-05 14:07 | 32.04070 | 169.83372 | 39325 ft | 490 kts | 107° |
| 2026-05-05 14:07 | 31.97607 | 170.14606 | 39325 ft | 491 kts | 101° |
| 2026-05-05 14:08 | 31.92636 | 170.46114 | 39332 ft | 489 kts | 101° |
| 2026-05-05 14:08 | 31.87557 | 170.77383 | 39315 ft | 490 kts | 101° |
| 2026-05-05 14:09 | 31.82352 | 171.08887 | 39340 ft | 491 kts | 101° |
| 2026-05-05 14:09 | 31.77060 | 171.40394 | 39316 ft | 488 kts | 101° |
| 2026-05-05 14:10 | 31.71777 | 171.71355 | 39322 ft | 491 kts | 101° |
| 2026-05-05 14:10 | 31.66323 | 172.02825 | 39320 ft | 491 kts | 101° |
| 2026-05-05 14:11 | 31.60808 | 172.34192 | 39315 ft | 491 kts | 101° |
| 2026-05-05 14:11 | 31.55201 | 172.65595 | 39315 ft | 491 kts | 101° |
| 2026-05-05 14:12 | 31.49531 | 172.96889 | 39315 ft | 490 kts | 101° |
| 2026-05-05 14:12 | 31.43812 | 173.27988 | 39305 ft | 492 kts | 101° |
| 2026-05-05 14:13 | 31.37961 | 173.59375 | 39303 ft | 494 kts | 101° |
| 2026-05-05 14:13 | 31.32046 | 173.90643 | 39303 ft | 492 kts | 101° |
| 2026-05-05 14:14 | 31.26027 | 174.22016 | 39297 ft | 494 kts | 101° |
| 2026-05-05 14:14 | 31.19920 | 174.53412 | 39299 ft | 496 kts | 101° |
| 2026-05-05 14:15 | 31.13717 | 174.84869 | 39301 ft | 497 kts | 101° |
| 2026-05-05 14:15 | 31.07460 | 175.16167 | 39294 ft | 499 kts | 101° |
| 2026-05-05 14:16 | 31.01078 | 175.47667 | 39293 ft | 500 kts | 101° |
| 2026-05-05 14:16 | 30.94600 | 175.79213 | 39291 ft | 500 kts | 101° |
| 2026-05-05 14:17 | 30.88050 | 176.10703 | 39284 ft | 499 kts | 101° |
| 2026-05-05 14:17 | 30.81438 | 176.42086 | 39280 ft | 499 kts | 101° |
| 2026-05-05 14:18 | 30.74744 | 176.73455 | 39286 ft | 499 kts | 101° |
| 2026-05-05 14:18 | 30.67971 | 177.04795 | 39279 ft | 501 kts | 101° |
| 2026-05-05 14:19 | 30.61166 | 177.35910 | 39274 ft | 501 kts | 102° |
| 2026-05-05 14:19 | 30.54218 | 177.67274 | 39270 ft | 501 kts | 102° |
| 2026-05-05 14:20 | 30.47179 | 177.98668 | 39271 ft | 503 kts | 102° |
| 2026-05-05 14:20 | 30.40049 | 178.30087 | 39268 ft | 504 kts | 102° |
| 2026-05-05 14:21 | 30.32849 | 178.61437 | 39268 ft | 504 kts | 103° |
| 2026-05-05 14:21 | 30.25557 | 178.92814 | 39265 ft | 505 kts | 103° |
| 2026-05-05 14:22 | 30.18184 | 179.24168 | 39269 ft | 505 kts | 103° |
| 2026-05-05 14:22 | 30.10721 | 179.55541 | 39262 ft | 505 kts | 103° |
| 2026-05-05 14:23 | 30.03268 | 179.86594 | 39261 ft | 505 kts | 103° |
| 2026-05-05 14:23 | 29.93908 | -179.82708 | 39259 ft | 509 kts | 109° |
| 2026-05-05 14:24 | 29.83278 | -179.52466 | 39257 ft | 509 kts | 109° |
| 2026-05-05 14:24 | 29.72617 | -179.22450 | 39269 ft | 507 kts | 109° |
| 2026-05-05 14:25 | 29.61816 | -178.92321 | 39254 ft | 507 kts | 109° |
| 2026-05-05 14:25 | 29.51060 | -178.62570 | 39252 ft | 504 kts | 109° |
| 2026-05-05 14:26 | 29.40233 | -178.32874 | 39249 ft | 505 kts | 109° |
| 2026-05-05 14:26 | 29.31171 | -178.08193 | 39258 ft | 505 kts | 109° |
| 2026-05-05 14:27 | 29.27958 | -177.93316 | 39423 ft | 469 kts | 69° |
| 2026-05-05 14:27 | 29.29490 | -177.78788 | 39833 ft | 489 kts | 102° |
| 2026-05-05 14:27 | 29.22334 | -177.65216 | 39232 ft | 516 kts | 136° |
| 2026-05-05 14:27 | 29.11563 | -177.54680 | 39233 ft | 506 kts | 117° |
| 2026-05-05 14:28 | 28.99414 | -177.26170 | 39103 ft | 502 kts | 118° |
| 2026-05-05 14:28 | 28.94763 | -177.11340 | 39245 ft | 500 kts | 105° |
| 2026-05-05 14:28 | 28.89476 | -176.96612 | 39237 ft | 501 kts | 109° |
| 2026-05-05 14:29 | 28.78443 | -176.67817 | 39240 ft | 495 kts | 110° |
| 2026-05-05 14:29 | 28.67247 | -176.38641 | 39219 ft | 503 kts | 110° |
| 2026-05-05 14:30 | 28.55989 | -176.09572 | 39255 ft | 498 kts | 111° |
| 2026-05-05 14:30 | 28.44713 | -175.80687 | 39216 ft | 500 kts | 110° |
| 2026-05-05 14:31 | 28.33462 | -175.52048 | 39248 ft | 497 kts | 110° |
| 2026-05-05 14:31 | 28.22102 | -175.23380 | 39228 ft | 501 kts | 110° |
| 2026-05-05 14:32 | 28.10613 | -174.94581 | 39223 ft | 502 kts | 111° |
| 2026-05-05 14:32 | 27.99047 | -174.65804 | 39240 ft | 503 kts | 111° |
| 2026-05-05 14:33 | 27.87403 | -174.37034 | 39227 ft | 502 kts | 111° |
| 2026-05-05 14:33 | 27.75695 | -174.08317 | 39219 ft | 503 kts | 111° |
| 2026-05-05 14:34 | 27.63914 | -173.79632 | 39218 ft | 502 kts | 111° |
| 2026-05-05 14:34 | 27.52146 | -173.51178 | 39221 ft | 501 kts | 112° |
| 2026-05-05 14:35 | 27.40386 | -173.22950 | 39202 ft | 500 kts | 112° |
| 2026-05-05 14:35 | 27.28509 | -172.94656 | 39206 ft | 496 kts | 112° |
| 2026-05-05 14:36 | 27.16654 | -172.66578 | 39201 ft | 496 kts | 112° |
| 2026-05-05 14:36 | 27.04736 | -172.38554 | 39207 ft | 496 kts | 112° |
| 2026-05-05 14:37 | 26.92823 | -172.10733 | 39200 ft | 492 kts | 113° |
| 2026-05-05 14:37 | 26.80893 | -171.83063 | 39197 ft | 493 kts | 113° |
| 2026-05-05 14:38 | 26.68970 | -171.55585 | 39188 ft | 494 kts | 113° |
| 2026-05-05 14:38 | 26.56939 | -171.28033 | 39192 ft | 491 kts | 112° |
| 2026-05-05 14:39 | 26.44860 | -171.00550 | 39183 ft | 493 kts | 113° |
| 2026-05-05 14:39 | 26.32710 | -170.73088 | 39186 ft | 494 kts | 113° |
| 2026-05-05 14:40 | 26.20523 | -170.45718 | 39182 ft | 491 kts | 114° |
| 2026-05-05 14:40 | 26.08407 | -170.18651 | 39180 ft | 491 kts | 113° |
| 2026-05-05 14:41 | 25.96431 | -169.91240 | 39180 ft | 491 kts | 110° |
| 2026-05-05 14:41 | 25.85372 | -169.63411 | 39170 ft | 492 kts | 111° |
| 2026-05-05 14:42 | 25.74377 | -169.35978 | 39179 ft | 478 kts | 113° |
| 2026-05-05 14:42 | 25.68840 | -169.22408 | 39152 ft | 491 kts | 111° |
| 2026-05-05 14:42 | 25.63200 | -169.08517 | 39153 ft | 495 kts | 111° |
| 2026-05-05 14:43 | 25.51815 | -168.80620 | 39168 ft | 497 kts | 112° |
| 2026-05-05 14:43 | 25.40214 | -168.52374 | 39168 ft | 506 kts | 113° |
| 2026-05-05 14:44 | 25.28581 | -168.24233 | 39140 ft | 506 kts | 113° |
| 2026-05-05 14:44 | 25.16822 | -167.95971 | 39163 ft | 506 kts | 112° |
| 2026-05-05 14:45 | 25.04922 | -167.67558 | 39164 ft | 510 kts | 114° |
| 2026-05-05 14:45 | 24.92957 | -167.39176 | 39147 ft | 510 kts | 114° |
| 2026-05-05 14:46 | 24.80916 | -167.10794 | 39140 ft | 512 kts | 115° |
| 2026-05-05 14:46 | 24.68788 | -166.82385 | 39135 ft | 512 kts | 115° |
| 2026-05-05 14:47 | 24.56695 | -166.54243 | 39133 ft | 512 kts | 114° |
| 2026-05-05 14:47 | 24.44499 | -166.26032 | 39132 ft | 511 kts | 115° |
| 2026-05-05 14:48 | 24.32213 | -165.97785 | 39129 ft | 514 kts | 115° |
| 2026-05-05 14:48 | 24.19821 | -165.69492 | 39126 ft | 513 kts | 116° |
| 2026-05-05 14:49 | 24.07412 | -165.41320 | 39127 ft | 513 kts | 116° |
| 2026-05-05 14:49 | 23.94970 | -165.13237 | 39116 ft | 514 kts | 116° |
| 2026-05-05 14:50 | 23.82490 | -164.85242 | 39113 ft | 516 kts | 117° |
| 2026-05-05 14:50 | 23.69848 | -164.57065 | 39110 ft | 516 kts | 116° |
| 2026-05-05 14:51 | 23.57176 | -164.28974 | 39092 ft | 519 kts | 117° |
| 2026-05-05 14:51 | 23.44322 | -164.00649 | 39103 ft | 521 kts | 118° |
| 2026-05-05 14:52 | 23.31403 | -163.72354 | 39097 ft | 522 kts | 117° |
| 2026-05-05 14:52 | 23.18426 | -163.44095 | 39094 ft | 522 kts | 118° |
| 2026-05-05 14:53 | 23.05548 | -163.16215 | 39080 ft | 524 kts | 119° |
| 2026-05-05 14:53 | 22.92557 | -162.88249 | 39102 ft | 525 kts | 119° |
| 2026-05-05 14:54 | 22.79594 | -162.59835 | 39096 ft | 527 kts | 109° |
| 2026-05-05 14:54 | 22.71060 | -162.29398 | 39081 ft | 527 kts | 109° |
| 2026-05-05 14:55 | 22.62479 | -161.99181 | 39081 ft | 527 kts | 109° |
| 2026-05-05 14:55 | 22.53793 | -161.68839 | 39077 ft | 528 kts | 109° |
| 2026-05-05 14:56 | 22.45052 | -161.38530 | 39078 ft | 528 kts | 110° |
| 2026-05-05 14:56 | 22.36254 | -161.08258 | 39072 ft | 528 kts | 110° |
| 2026-05-05 14:57 | 22.27414 | -160.78070 | 39067 ft | 528 kts | 110° |
| 2026-05-05 14:57 | 22.18476 | -160.47860 | 39062 ft | 528 kts | 110° |
| 2026-05-05 14:58 | 22.09518 | -160.17665 | 39059 ft | 528 kts | 110° |
| 2026-05-05 14:58 | 22.00530 | -159.87656 | 39064 ft | 528 kts | 111° |
| 2026-05-05 14:59 | 21.91433 | -159.57481 | 39062 ft | 529 kts | 111° |
| 2026-05-05 14:59 | 21.80185 | -159.28369 | 39065 ft | 527 kts | 117° |
| 2026-05-05 15:00 | 21.70485 | -159.04349 | 39051 ft | 528 kts | 116° |
| 2026-05-05 15:00 | 21.56715 | -158.70454 | 39046 ft | 529 kts | 117° |
| 2026-05-05 15:01 | 21.44500 | -158.41786 | 39039 ft | 524 kts | 127° |
| 2026-05-05 15:01 | 21.30470 | -158.14350 | 39087 ft | 537 kts | 102° |
| 2026-05-05 15:02 | 21.30670 | -157.98257 | 39059 ft | 541 kts | 88° |
| 2026-05-05 15:02 | 21.32889 | -157.82505 | 39076 ft | 536 kts | 62° |
| 2026-05-05 15:02 | 21.39370 | -157.74112 | 39036 ft | 525 kts | 30° |
| 2026-05-05 15:02 | 21.42505 | -157.72146 | 39026 ft | 519 kts | 20° |
| 2026-05-05 15:03 | 21.48816 | -157.68308 | 39030 ft | 529 kts | 35° |
| 2026-05-05 15:03 | 21.54764 | -157.63767 | 38956 ft | 517 kts | 20° |
| 2026-05-05 15:04 | 21.58080 | -157.62404 | 38570 ft | 506 kts | 9° |
| 2026-05-05 15:04 | 21.61491 | -157.61554 | 37797 ft | 503 kts | 9° |
| 2026-05-05 15:04 | 21.64835 | -157.60345 | 36911 ft | 511 kts | 20° |
| 2026-05-05 15:04 | 21.67965 | -157.58485 | 35999 ft | 518 kts | 30° |
| 2026-05-05 15:05 | 21.73750 | -157.53836 | 34202 ft | 523 kts | 42° |
| 2026-05-05 15:05 | 21.76105 | -157.50842 | 33188 ft | 527 kts | 53° |
| 2026-05-05 15:05 | 21.77944 | -157.47413 | 32131 ft | 530 kts | 64° |
| 2026-05-05 15:06 | 21.79172 | -157.43678 | 31251 ft | 529 kts | 76° |
| 2026-05-05 15:06 | 21.79724 | -157.39842 | 30673 ft | 523 kts | 86° |
| 2026-05-05 15:06 | 21.79620 | -157.35966 | 30129 ft | 518 kts | 98° |
| 2026-05-05 15:06 | 21.78854 | -157.32202 | 29564 ft | 512 kts | 109° |
| 2026-05-05 15:07 | 21.77461 | -157.28709 | 29086 ft | 505 kts | 121° |
| 2026-05-05 15:07 | 21.75507 | -157.25604 | 28583 ft | 497 kts | 132° |
| 2026-05-05 15:07 | 21.73081 | -157.23010 | 28096 ft | 489 kts | 144° |
| 2026-05-05 15:07 | 21.70272 | -157.21009 | 27600 ft | 480 kts | 156° |
| 2026-05-05 15:08 | 21.67208 | -157.19678 | 27130 ft | 471 kts | 167° |
| 2026-05-05 15:08 | 21.64023 | -157.19058 | 26644 ft | 462 kts | 179° |
| 2026-05-05 15:08 | 21.60846 | -157.19161 | 26175 ft | 453 kts | 191° |
| 2026-05-05 15:08 | 21.57820 | -157.19969 | 25697 ft | 445 kts | 204° |
| 2026-05-05 15:09 | 21.55081 | -157.21432 | 25218 ft | 437 kts | 216° |
| 2026-05-05 15:09 | 21.52742 | -157.23479 | 24748 ft | 431 kts | 228° |
| 2026-05-05 15:09 | 21.50939 | -157.25960 | 24278 ft | 426 kts | 240° |
| 2026-05-05 15:09 | 21.49706 | -157.28824 | 23791 ft | 422 kts | 253° |
| 2026-05-05 15:10 | 21.49134 | -157.31896 | 23257 ft | 419 kts | 266° |
| 2026-05-05 15:10 | 21.49189 | -157.35004 | 22725 ft | 415 kts | 273° |
| 2026-05-05 15:10 | 21.49050 | -157.38089 | 22143 ft | 413 kts | 260° |
| 2026-05-05 15:10 | 21.48229 | -157.41028 | 21623 ft | 411 kts | 247° |
| 2026-05-05 15:11 | 21.46781 | -157.43656 | 21079 ft | 410 kts | 234° |
| 2026-05-05 15:11 | 21.45022 | -157.46057 | 20540 ft | 408 kts | 233° |
| 2026-05-05 15:11 | 21.43333 | -157.48490 | 20029 ft | 405 kts | 236° |
| 2026-05-05 15:11 | 21.41792 | -157.51005 | 19505 ft | 401 kts | 239° |
| 2026-05-05 15:12 | 21.38243 | -157.55328 | 18458 ft | 401 kts | 216° |
| 2026-05-05 15:12 | 21.33007 | -157.57220 | 17301 ft | 403 kts | 185° |
| 2026-05-05 15:12 | 21.27607 | -157.55893 | 16165 ft | 404 kts | 152° |
| 2026-05-05 15:12 | 21.23705 | -157.51691 | 15067 ft | 401 kts | 119° |
| 2026-05-05 15:13 | 21.22488 | -157.45989 | 14031 ft | 394 kts | 85° |
| 2026-05-05 15:13 | 21.23868 | -157.40460 | 12903 ft | 386 kts | 67° |
| 2026-05-05 15:13 | 21.26072 | -157.35198 | 11909 ft | 375 kts | 64° |
| 2026-05-05 15:13 | 21.29734 | -157.26765 | 11296 ft | 309 kts | 64° |
| 2026-05-05 15:14 | 21.34705 | -157.20982 | 10144 ft | 251 kts | 25° |
| 2026-05-05 15:14 | 21.41407 | -157.20125 | 8186 ft | 243 kts | 345° |
| 2026-05-05 15:14 | 21.46975 | -157.23791 | 6767 ft | 235 kts | 307° |
| 2026-05-05 15:14 | 21.49287 | -157.30221 | 5311 ft | 231 kts | 269° |
| 2026-05-05 15:15 | 21.48601 | -157.34661 | 4542 ft | 221 kts | 246° |
| 2026-05-05 15:15 | 21.46504 | -157.39720 | 4732 ft | 222 kts | 246° |
| 2026-05-05 15:15 | 21.45897 | -157.41293 | 4411 ft | 227 kts | 244° |
| 2026-05-05 15:15 | 21.43906 | -157.45736 | 3954 ft | 216 kts | 243° |
| 2026-05-05 15:16 | 21.41356 | -157.51661 | 3957 ft | 219 kts | 244° |
| 2026-05-05 15:16 | 21.38812 | -157.57630 | 3956 ft | 219 kts | 244° |
| 2026-05-05 15:16 | 21.35007 | -157.63214 | 3955 ft | 262 kts | 214° |
| 2026-05-05 15:16 | 21.30257 | -157.67035 | 3959 ft | 264 kts | 218° |
| 2026-05-05 15:17 | 21.28830 | -157.68271 | 3956 ft | 264 kts | 218° |
| 2026-05-05 15:17 | 21.27420 | -157.69497 | 3959 ft | 264 kts | 218° |
| 2026-05-05 15:17 | 21.25932 | -157.70780 | 3968 ft | 294 kts | 218° |
| 2026-05-05 15:17 | 21.24281 | -157.72215 | 3972 ft | 306 kts | 221° |
| 2026-05-05 15:18 | 21.22970 | -157.73899 | 3973 ft | 283 kts | 240° |
| 2026-05-05 15:18 | 21.22385 | -157.75820 | 3975 ft | 264 kts | 263° |
| 2026-05-05 15:18 | 21.22546 | -157.77809 | 3982 ft | 271 kts | 287° |
| 2026-05-05 15:18 | 21.23401 | -157.79597 | 3985 ft | 271 kts | 302° |
| 2026-05-05 15:19 | 21.24426 | -157.81295 | 3988 ft | 271 kts | 302° |
| 2026-05-05 15:19 | 21.25243 | -157.83090 | 3983 ft | 268 kts | 283° |
| 2026-05-05 15:19 | 21.25393 | -157.85073 | 3989 ft | 268 kts | 263° |
| 2026-05-05 15:19 | 21.25187 | -157.87012 | 3983 ft | 252 kts | 263° |
| 2026-05-05 15:20 | 21.25019 | -157.88800 | 3983 ft | 232 kts | 263° |
| 2026-05-05 15:20 | 21.24871 | -157.90464 | 3986 ft | 220 kts | 263° |
| 2026-05-05 15:20 | 21.24724 | -157.92122 | 3995 ft | 220 kts | 263° |
| 2026-05-05 15:20 | 21.24772 | -157.93668 | 3978 ft | 198 kts | 287° |
| 2026-05-05 15:21 | 21.25468 | -157.94799 | 3976 ft | 170 kts | 322° |
| 2026-05-05 15:21 | 21.26507 | -157.95224 | 3943 ft | 162 kts | 357° |
| 2026-05-05 15:21 | 21.27700 | -157.95070 | 3339 ft | 190 kts | 15° |
| 2026-05-05 15:21 | 21.29064 | -157.94692 | 1979 ft | 215 kts | 14° |
| 2026-05-05 15:22 | 21.30454 | -157.94106 | 613 ft | 220 kts | 39° |
| 2026-05-05 15:22 | 21.31287 | -157.92858 | 92 ft | 192 kts | 53° |
| 2026-05-05 15:22 | 21.31972 | -157.91896 | 30 ft | 109 kts | 53° |
| 2026-05-05 15:22 | 21.32307 | -157.91436 | 30 ft | 50 kts | 49° |
| 2026-05-05 15:23 | 21.32440 | -157.91363 | 30 ft | 18 kts | 15° |
| 2026-05-05 15:23 | 21.32563 | -157.91327 | 30 ft | 19 kts | 15° |
| 2026-05-05 15:23 | 21.32689 | -157.91325 | 30 ft | 15 kts | 332° |
| 2026-05-05 15:23 | 21.32691 | -157.91405 | 30 ft | 11 kts | 266° |
| 2026-05-05 15:24 | 21.32691 | -157.91496 | 30 ft | 13 kts | 272° |
| 2026-05-05 15:24 | 21.32693 | -157.91669 | 30 ft | 16 kts | 270° |
| 2026-05-05 15:24 | 21.32694 | -157.91929 | 30 ft | 19 kts | 269° |
| 2026-05-05 15:24 | 21.32692 | -157.92222 | 30 ft | 20 kts | 269° |
| 2026-05-05 15:25 | 21.32694 | -157.92542 | 30 ft | 23 kts | 271° |
| 2026-05-05 15:25 | 21.32739 | -157.92880 | 30 ft | 23 kts | 280° |
| 2026-05-05 15:25 | 21.32745 | -157.93235 | 30 ft | 25 kts | 270° |
| 2026-05-05 15:25 | 21.32744 | -157.93611 | 30 ft | 26 kts | 270° |
| 2026-05-05 15:26 | 21.32746 | -157.94006 | 30 ft | 27 kts | 271° |
| 2026-05-05 15:26 | 21.32761 | -157.94411 | 30 ft | 27 kts | 288° |
| 2026-05-05 15:26 | 21.32958 | -157.94688 | 30 ft | 15 kts | 275° |
| 2026-05-05 15:26 | 21.32908 | -157.94921 | 30 ft | 17 kts | 261° |
| 2026-05-05 15:27 | 21.32862 | -157.95190 | 30 ft | 20 kts | 260° |
| 2026-05-05 15:27 | 21.32833 | -157.95503 | 30 ft | 22 kts | 274° |
| 2026-05-05 15:27 | 21.32899 | -157.95832 | 30 ft | 23 kts | 298° |
| 2026-05-05 15:27 | 21.33055 | -157.95986 | 30 ft | 1 kts | 343° |
| 2026-05-05 15:28 | 21.33100 | -157.95987 | 30 ft | 4 kts | 24° |
| 2026-05-05 15:28 | 21.33154 | -157.95927 | 30 ft | 8 kts | 45° |
| 2026-05-05 15:28 | 21.33251 | -157.95826 | 30 ft | 12 kts | 44° |
| 2026-05-05 15:28 | 21.33383 | -157.95684 | 30 ft | 15 kts | 46° |